createdAt,value
2023-04-06T00:01:59.948Z,5.73
2023-04-06T00:05:02.539Z,5.90
2023-04-06T00:08:05.446Z,5.70
2023-04-06T00:11:08.000Z,5.63
2023-04-06T00:14:11.868Z,6.40
2023-04-06T00:20:17.319Z,5.77
2023-04-06T00:23:19.865Z,5.00
2023-04-06T00:26:22.481Z,6.13
2023-04-06T00:29:26.499Z,5.80
2023-04-06T00:32:29.131Z,5.80
2023-04-06T00:35:31.705Z,5.53
2023-04-06T00:38:34.264Z,5.10
2023-04-06T00:41:36.860Z,6.23
2023-04-06T00:44:40.910Z,5.93
2023-04-06T00:47:43.644Z,6.57
2023-04-06T00:50:46.161Z,6.17
2023-04-06T00:53:48.702Z,5.90
2023-04-06T00:56:51.365Z,6.00
2023-04-06T00:59:55.472Z,6.13
2023-04-06T01:02:58.206Z,5.90
2023-04-06T01:06:00.814Z,6.57
2023-04-06T01:09:03.353Z,6.43
2023-04-06T01:12:06.076Z,6.60
2023-04-06T01:15:11.355Z,6.20
2023-04-06T01:18:14.128Z,6.50
2023-04-06T01:21:17.501Z,5.90
2023-04-06T01:24:21.473Z,6.35
2023-04-06T01:27:24.061Z,6.10
2023-04-06T01:30:27.430Z,6.43
2023-04-06T01:33:29.992Z,6.80
2023-04-06T01:36:32.634Z,6.87
2023-04-06T01:39:36.789Z,6.90
2023-04-06T01:42:39.332Z,6.97
2023-04-06T01:45:41.869Z,6.03
2023-04-06T01:48:44.543Z,6.77
2023-04-06T01:51:47.076Z,6.63
2023-04-06T01:54:51.086Z,6.07
2023-04-06T01:57:53.590Z,6.20
2023-04-06T02:00:56.362Z,7.30
2023-04-06T02:03:58.937Z,6.07
2023-04-06T02:07:01.463Z,6.97
2023-04-06T02:10:06.252Z,6.17
2023-04-06T02:13:08.888Z,6.40
2023-04-06T02:16:11.467Z,6.10
2023-04-06T02:19:14.128Z,6.60
2023-04-06T02:22:16.962Z,6.23
2023-04-06T02:25:21.091Z,6.60
2023-04-06T02:28:23.637Z,6.90
2023-04-06T02:31:26.229Z,6.40
2023-04-06T02:34:28.756Z,6.53
2023-04-06T02:37:31.364Z,6.40
2023-04-06T02:40:35.338Z,6.67
2023-04-06T02:43:37.874Z,6.97
2023-04-06T02:46:40.405Z,6.70
2023-04-06T02:49:42.978Z,6.83
2023-04-06T02:52:45.570Z,6.30
2023-04-06T02:55:49.452Z,5.93
2023-04-06T03:01:54.445Z,6.00
2023-04-06T03:04:57.064Z,6.27
2023-04-06T03:07:59.671Z,7.03
2023-04-06T03:11:03.561Z,7.20
2023-04-06T03:17:08.447Z,7.37
2023-04-06T03:20:11.785Z,7.40
2023-04-06T03:23:14.377Z,6.47
2023-04-06T03:26:18.296Z,7.00
2023-04-06T03:32:26.269Z,7.03
2023-04-06T03:35:31.741Z,6.53
2023-04-06T03:38:43.097Z,6.50
2023-04-06T03:42:10.799Z,6.40
2023-04-06T03:45:25.654Z,6.07
2023-04-06T03:53:11.717Z,7.83
2023-04-06T03:56:26.082Z,6.30
2023-04-06T03:59:58.011Z,6.77
2023-04-06T04:03:51.907Z,6.53
2023-04-06T04:07:04.354Z,7.10
2023-04-06T04:10:07.649Z,6.87
2023-04-06T04:13:10.273Z,6.93
2023-04-06T04:16:14.403Z,6.53
2023-04-06T04:19:17.131Z,6.57
2023-04-06T04:22:19.644Z,7.33
2023-04-06T04:25:22.243Z,6.63
2023-04-06T04:28:24.875Z,7.13
2023-04-06T04:31:28.879Z,6.63
2023-04-06T04:34:32.176Z,6.47
2023-04-06T04:37:35.729Z,7.15
2023-04-06T04:40:38.234Z,6.97
2023-04-06T04:43:40.919Z,6.80
2023-04-06T04:46:44.715Z,6.60
2023-04-06T04:49:47.283Z,6.90
2023-04-06T04:52:49.993Z,6.23
2023-04-06T04:55:52.747Z,6.87
2023-04-06T04:58:55.462Z,8.20
2023-04-06T05:01:59.488Z,8.43
2023-04-06T05:05:02.107Z,7.40
2023-04-06T05:08:05.116Z,7.33
2023-04-06T05:11:07.662Z,6.25
2023-04-06T05:14:10.397Z,6.83
2023-04-06T05:17:14.534Z,7.77
2023-04-06T05:20:17.369Z,7.50
2023-04-06T05:23:20.120Z,7.77
2023-04-06T05:26:22.616Z,6.87
2023-04-06T05:29:25.500Z,7.20
2023-04-06T05:32:29.463Z,7.37
2023-04-06T05:35:32.334Z,6.67
2023-04-06T05:38:35.317Z,6.93
2023-04-06T05:41:37.916Z,6.90
2023-04-06T05:44:40.548Z,7.70
2023-04-06T05:47:45.067Z,7.53
2023-04-06T05:50:50.550Z,6.80
2023-04-06T05:53:53.072Z,7.40
2023-04-06T05:56:55.707Z,6.80
2023-04-06T05:59:58.222Z,6.97
2023-04-06T06:03:05.291Z,7.20
2023-04-06T06:06:07.901Z,7.07
2023-04-06T06:09:10.594Z,6.83
2023-04-06T06:12:14.669Z,7.27
2023-04-06T06:15:17.498Z,7.20
2023-04-06T06:18:21.704Z,7.47
2023-04-06T06:21:24.257Z,7.23
2023-04-06T06:24:26.755Z,7.13
2023-04-06T06:27:43.062Z,7.10
2023-04-06T06:30:45.786Z,7.07
2023-04-06T06:33:51.229Z,7.60
2023-04-06T06:36:56.147Z,6.93
2023-04-06T06:39:58.728Z,7.60
2023-04-06T06:43:01.286Z,7.47
2023-04-06T06:46:03.930Z,7.53
2023-04-06T06:49:07.845Z,7.73
2023-04-06T06:55:13.060Z,7.50
2023-04-06T06:58:15.598Z,7.03
2023-04-06T07:01:18.189Z,8.13
2023-04-06T07:04:22.360Z,7.93
2023-04-06T07:07:24.913Z,7.93
2023-04-06T07:10:28.679Z,6.93
2023-04-06T07:16:33.630Z,7.63
2023-04-06T07:19:37.718Z,7.53
2023-04-06T07:22:40.351Z,8.07
2023-04-06T07:25:43.127Z,7.40
2023-04-06T07:28:46.305Z,7.73
2023-04-06T07:31:50.005Z,7.60
2023-04-06T07:34:54.067Z,8.53
2023-04-06T07:37:56.572Z,7.77
2023-04-06T07:40:59.436Z,8.13
2023-04-06T07:44:02.046Z,8.07
2023-04-06T07:47:04.726Z,8.63
2023-04-06T07:50:09.543Z,8.97
2023-04-06T07:53:12.165Z,7.80
2023-04-06T07:56:16.417Z,7.70
2023-04-06T07:59:19.030Z,8.10
2023-04-06T08:02:21.843Z,7.47
2023-04-06T08:05:25.975Z,8.23
2023-04-06T08:08:28.596Z,8.53
2023-04-06T08:11:31.170Z,7.57
2023-04-06T08:14:33.740Z,8.40
2023-04-06T08:17:36.476Z,7.67
2023-04-06T08:20:40.865Z,8.70
2023-04-06T08:23:43.367Z,9.47
2023-04-06T08:26:46.132Z,7.53
2023-04-06T08:29:51.123Z,8.45
2023-04-06T08:32:53.766Z,8.83
2023-04-06T08:35:57.773Z,8.60
2023-04-06T08:39:01.513Z,8.60
2023-04-06T08:45:08.468Z,8.37
2023-04-06T08:51:14.865Z,8.67
2023-04-06T08:54:17.533Z,8.03
2023-04-06T08:57:20.968Z,7.93
2023-04-06T09:00:24.036Z,9.10
2023-04-06T09:03:28.490Z,7.60
2023-04-06T09:06:32.949Z,8.60
2023-04-06T09:09:35.616Z,7.30
2023-04-06T09:12:38.216Z,7.50
2023-04-06T09:15:42.177Z,6.93
2023-04-06T09:18:44.909Z,7.27
2023-04-06T09:21:49.158Z,7.33
2023-04-06T09:24:53.061Z,7.13
2023-04-06T09:28:02.349Z,7.53
2023-04-06T09:31:05.045Z,8.33
2023-04-06T09:34:07.891Z,7.60
2023-04-06T09:37:15.960Z,6.88
2023-04-06T09:40:20.004Z,7.07
2023-04-06T09:43:27.082Z,6.53
2023-04-06T09:46:29.772Z,6.00
2023-04-06T09:49:33.077Z,6.30
2023-04-06T09:52:40.390Z,5.53
2023-04-06T09:55:45.283Z,5.47
2023-04-06T09:58:48.866Z,6.10
2023-04-06T10:04:59.118Z,4.53
2023-04-06T10:08:06.739Z,4.93
2023-04-06T10:11:09.976Z,5.10
2023-04-06T10:14:12.861Z,5.93
2023-04-06T10:17:15.561Z,5.22
2023-04-06T10:20:23.089Z,5.87
2023-04-06T10:23:33.093Z,5.27
2023-04-06T10:26:35.664Z,4.40
2023-04-06T10:29:46.213Z,5.67
2023-04-06T10:32:48.713Z,5.73
2023-04-06T10:35:51.349Z,5.47
2023-04-06T10:38:59.701Z,4.70
2023-04-06T10:42:08.770Z,4.47
2023-04-06T10:45:21.542Z,5.37
2023-04-06T10:48:24.873Z,4.77
2023-04-06T10:51:29.448Z,5.63
2023-04-06T10:54:33.790Z,5.17
2023-04-06T10:57:37.470Z,4.70
2023-04-06T11:00:50.556Z,5.40
2023-04-06T11:03:58.896Z,4.40
2023-04-06T11:07:01.517Z,4.73
2023-04-06T11:10:15.998Z,4.00
2023-04-06T11:13:20.348Z,4.90
2023-04-06T11:16:23.902Z,5.40
2023-04-06T11:22:28.995Z,4.00
2023-04-06T11:25:33.668Z,4.70
2023-04-06T11:28:36.884Z,4.53
2023-04-06T11:31:43.311Z,4.40
2023-04-06T11:34:49.023Z,4.63
2023-04-06T11:37:52.144Z,4.60
2023-04-06T11:40:56.449Z,5.50
2023-04-06T11:43:59.212Z,4.80
2023-04-06T11:47:02.897Z,5.28
2023-04-06T11:50:09.533Z,4.50
2023-04-06T11:53:12.106Z,4.57
2023-04-06T11:56:26.465Z,4.57
2023-04-06T11:59:29.376Z,4.80
2023-04-06T12:02:33.254Z,4.70
2023-04-06T12:05:36.172Z,5.20
2023-04-06T12:08:38.935Z,4.60
2023-04-06T12:11:43.001Z,4.43
2023-04-06T12:14:45.670Z,4.30
2023-04-06T12:17:48.370Z,4.18
2023-04-06T12:20:51.102Z,4.22
2023-04-06T12:23:53.633Z,3.70
2023-04-06T12:27:08.772Z,4.10
2023-04-06T12:30:13.811Z,4.30
2023-04-06T12:36:20.805Z,3.60
2023-04-06T12:39:23.685Z,3.70
2023-04-06T12:42:27.549Z,3.63
2023-04-06T12:45:30.262Z,3.73
2023-04-06T12:48:33.213Z,3.92
2023-04-06T12:51:35.774Z,3.70
2023-04-06T12:54:38.345Z,5.13
2023-04-06T12:57:42.637Z,4.93
2023-04-06T13:00:46.683Z,4.67
2023-04-06T13:03:49.410Z,4.15
2023-04-06T13:06:51.944Z,4.18
2023-04-06T13:09:54.901Z,3.67
2023-04-06T13:12:58.776Z,3.35
2023-04-06T13:16:03.103Z,4.50
2023-04-06T13:19:05.805Z,4.10
2023-04-06T13:22:11.320Z,3.67
2023-04-06T13:25:13.947Z,4.00
2023-04-06T13:28:17.794Z,3.92
2023-04-06T13:31:20.691Z,3.93
2023-04-06T13:34:23.262Z,4.20
2023-04-06T13:37:26.134Z,4.20
2023-04-06T13:40:28.672Z,4.40
2023-04-06T13:43:32.583Z,4.20
2023-04-06T13:46:35.086Z,4.00
2023-04-06T13:49:37.914Z,3.92
2023-04-06T13:52:40.543Z,4.18
2023-04-06T13:55:43.143Z,4.38
2023-04-06T13:58:47.163Z,4.47
2023-04-06T14:01:50.263Z,4.47
2023-04-06T14:04:52.969Z,4.38
2023-04-06T14:07:56.306Z,3.92
2023-04-06T14:14:02.933Z,4.73
2023-04-06T14:17:05.769Z,4.10
2023-04-06T14:20:14.794Z,4.10
2023-04-06T14:23:17.421Z,4.30
2023-04-06T14:26:20.583Z,4.05
2023-04-06T14:29:24.448Z,4.07
2023-04-06T14:32:27.598Z,5.23
2023-04-06T14:35:31.643Z,4.43
2023-04-06T14:38:34.581Z,4.70
2023-04-06T14:41:37.211Z,4.75
2023-04-06T14:44:43.971Z,4.20
2023-04-06T14:47:46.515Z,4.10
2023-04-06T14:50:54.266Z,4.00
2023-04-06T14:53:56.957Z,3.93
2023-04-06T14:56:59.549Z,3.60
2023-04-06T15:00:04.437Z,4.00
2023-04-06T15:03:07.166Z,4.00
2023-04-06T15:06:16.165Z,4.20
2023-04-06T15:09:18.792Z,4.40
2023-04-06T15:12:21.457Z,3.97
2023-04-06T15:15:25.656Z,4.43
2023-04-06T15:18:28.402Z,4.03
2023-04-06T15:21:31.258Z,3.83
2023-04-06T15:24:33.998Z,4.43
2023-04-06T15:27:36.582Z,4.63
2023-04-06T15:30:40.757Z,4.30
2023-04-06T15:33:44.730Z,4.03
2023-04-06T15:36:47.883Z,4.30
2023-04-06T15:39:50.883Z,4.35
2023-04-06T15:42:53.425Z,4.18
2023-04-06T15:45:57.305Z,3.60
2023-04-06T15:49:00.114Z,3.70
2023-04-06T15:52:02.682Z,5.03
2023-04-06T15:55:07.083Z,3.60
2023-04-06T15:58:09.807Z,4.17
2023-04-06T16:01:15.284Z,4.65
2023-04-06T16:04:17.954Z,4.83
2023-04-06T16:07:20.930Z,4.68
2023-04-06T16:10:23.467Z,4.10
2023-04-06T16:13:26.263Z,4.07
2023-04-06T16:16:30.534Z,4.50
2023-04-06T16:19:33.199Z,4.83
2023-04-06T16:22:36.740Z,4.53
2023-04-06T16:25:39.845Z,3.90
2023-04-06T16:28:42.510Z,4.75
2023-04-06T16:31:47.942Z,4.10
2023-04-06T16:34:50.990Z,4.33
2023-04-06T16:37:53.582Z,4.20
2023-04-06T16:41:01.234Z,5.35
2023-04-06T16:44:03.949Z,4.27
2023-04-06T16:47:08.476Z,4.55
2023-04-06T16:50:12.081Z,5.33
2023-04-06T16:53:14.782Z,4.80
2023-04-06T16:56:17.485Z,5.55
2023-04-06T16:59:20.487Z,5.82
2023-04-06T17:02:24.602Z,5.60
2023-04-06T17:05:27.675Z,6.33
2023-04-06T17:08:30.387Z,6.35
2023-04-06T17:11:43.746Z,6.30
2023-04-06T17:14:49.060Z,5.70
2023-04-06T17:17:54.077Z,6.97
2023-04-06T17:20:56.721Z,6.03
2023-04-06T17:23:59.442Z,4.93
2023-04-06T17:27:02.736Z,4.78
2023-04-06T17:30:06.451Z,4.20
2023-04-06T17:39:15.584Z,4.33
2023-04-06T17:42:18.836Z,3.87
2023-04-06T17:45:21.488Z,4.75
2023-04-06T17:48:26.669Z,3.53
2023-04-06T17:51:29.300Z,3.40
2023-04-06T17:54:31.950Z,3.57
2023-04-06T17:57:34.585Z,4.03
2023-04-06T18:00:37.250Z,3.10
2023-04-06T18:03:41.432Z,3.70
2023-04-06T18:06:44.095Z,4.13
2023-04-06T18:09:46.696Z,3.72
2023-04-06T18:12:49.482Z,4.43
2023-04-06T18:15:54.207Z,3.65
2023-04-06T18:18:58.351Z,4.43
2023-04-06T18:22:01.544Z,4.57
2023-04-06T18:25:04.091Z,4.00
2023-04-06T18:28:06.947Z,4.37
2023-04-06T18:31:09.547Z,4.30
2023-04-06T18:34:13.608Z,3.75
2023-04-06T18:37:16.330Z,3.57
2023-04-06T18:40:34.732Z,3.88
2023-04-06T18:43:37.966Z,4.37
2023-04-06T18:46:40.849Z,4.28
2023-04-06T18:49:44.781Z,3.00
2023-04-06T18:52:47.407Z,3.37
2023-04-06T18:55:51.469Z,2.80
2023-04-06T18:58:54.140Z,3.33
2023-04-06T19:01:56.916Z,3.30
2023-04-06T19:05:03.416Z,3.60
2023-04-06T19:08:06.181Z,3.63
2023-04-06T19:11:09.003Z,3.60
2023-04-06T19:14:11.609Z,3.95
2023-04-06T19:17:14.142Z,4.33
2023-04-06T19:20:18.573Z,4.30
2023-04-06T19:23:21.457Z,2.77
2023-04-06T19:26:27.017Z,4.55
2023-04-06T19:29:29.704Z,3.67
2023-04-06T19:32:32.389Z,3.35
2023-04-06T19:35:36.555Z,3.58
2023-04-06T19:38:39.358Z,3.87
2023-04-06T19:41:41.853Z,2.85
2023-04-06T19:44:44.427Z,3.40
2023-04-06T19:47:47.386Z,2.70
2023-04-06T19:50:53.548Z,2.70
2023-04-06T19:53:56.136Z,2.83
2023-04-06T19:56:58.696Z,2.63
2023-04-06T20:00:01.279Z,2.47
2023-04-06T20:03:04.052Z,1.90
2023-04-06T20:06:08.217Z,2.53
2023-04-06T20:09:11.942Z,2.00
2023-04-06T20:12:14.470Z,1.73
2023-04-06T20:15:17.316Z,1.67
2023-04-06T20:18:19.948Z,1.75
2023-04-06T20:21:24.123Z,2.30
2023-04-06T20:24:26.779Z,1.90
2023-04-06T20:27:29.300Z,2.20
2023-04-06T20:30:32.232Z,2.47
2023-04-06T20:33:35.353Z,1.83
2023-04-06T20:36:40.050Z,2.15
2023-04-06T20:39:42.876Z,2.07
2023-04-06T20:42:46.177Z,2.30
2023-04-06T20:45:49.522Z,2.58
2023-04-06T20:48:53.430Z,2.95
2023-04-06T20:51:57.454Z,2.67
2023-04-06T20:55:01.484Z,2.57
2023-04-06T20:58:04.035Z,2.80
2023-04-06T21:01:12.787Z,3.20
2023-04-06T21:04:15.824Z,3.23
2023-04-06T21:07:20.064Z,2.33
2023-04-06T21:10:23.672Z,2.70
2023-04-06T21:16:28.775Z,2.80
2023-04-06T21:19:31.279Z,2.67
2023-04-06T21:22:35.538Z,3.57
2023-04-06T21:25:38.456Z,3.13
2023-04-06T21:28:41.009Z,3.40
2023-04-06T21:31:43.600Z,3.47
2023-04-06T21:34:46.621Z,4.10
2023-04-06T21:37:50.612Z,4.00
2023-04-06T21:40:56.625Z,3.60
2023-04-06T21:43:59.422Z,4.40
2023-04-06T21:47:02.077Z,4.55
2023-04-06T21:50:05.328Z,4.57
2023-04-06T21:53:09.321Z,4.85
2023-04-06T21:56:11.924Z,4.23
2023-04-06T21:59:15.741Z,4.23
2023-04-06T22:02:18.440Z,4.43
2023-04-06T22:05:21.081Z,4.90
2023-04-06T22:08:33.384Z,4.87
2023-04-06T22:11:36.681Z,5.30
2023-04-06T22:14:39.141Z,5.20
2023-04-06T22:17:41.876Z,5.50
2023-04-06T22:20:44.645Z,4.97
2023-04-06T22:23:48.685Z,5.65
2023-04-06T22:26:51.227Z,4.97
2023-04-06T22:29:53.915Z,5.20
2023-04-06T22:32:56.504Z,5.20
2023-04-06T22:35:59.073Z,4.80
2023-04-06T22:39:03.053Z,5.77
2023-04-06T22:42:06.384Z,5.60
2023-04-06T22:45:09.717Z,5.40
2023-04-06T22:48:12.240Z,5.47
2023-04-06T22:51:14.904Z,5.10
2023-04-06T22:54:19.194Z,5.03
2023-04-06T22:57:22.550Z,5.07
2023-04-06T23:00:25.397Z,5.45
2023-04-06T23:03:28.154Z,5.40
2023-04-06T23:06:31.286Z,5.30
2023-04-06T23:09:35.100Z,5.10
2023-04-06T23:12:37.644Z,4.77
2023-04-06T23:15:40.188Z,5.97
2023-04-06T23:18:42.748Z,5.03
2023-04-06T23:21:45.302Z,4.90
2023-04-06T23:24:50.077Z,4.87
2023-04-06T23:27:53.065Z,4.90
2023-04-06T23:30:55.595Z,5.28
2023-04-06T23:33:58.099Z,5.23
2023-04-06T23:37:02.865Z,5.47
2023-04-06T23:40:08.659Z,5.20
2023-04-06T23:43:11.262Z,5.73
2023-04-06T23:46:16.874Z,5.57
2023-04-06T23:49:19.498Z,5.43
2023-04-06T23:52:22.132Z,5.83
2023-04-06T23:55:26.254Z,5.70
2023-04-06T23:58:28.916Z,5.80
